createdAt,value
2018-08-09T00:00:02.268Z,2.00
2018-08-09T00:00:36.580Z,2.40
2018-08-09T00:01:10.475Z,2.03
2018-08-09T00:01:44.279Z,2.33
2018-08-09T00:02:18.502Z,2.27
2018-08-09T00:02:53.307Z,2.20
2018-08-09T00:03:27.036Z,2.63
2018-08-09T00:04:00.962Z,2.50
2018-08-09T00:04:34.819Z,2.50
2018-08-09T00:05:08.639Z,2.20
2018-08-09T00:05:42.709Z,2.40
2018-08-09T00:06:16.515Z,2.30
2018-08-09T00:06:50.656Z,2.30
2018-08-09T00:07:24.853Z,2.20
2018-08-09T00:07:58.544Z,2.03
2018-08-09T00:08:32.368Z,2.40
2018-08-09T00:09:06.896Z,2.53
2018-08-09T00:09:40.568Z,2.30
2018-08-09T00:10:14.491Z,2.40
2018-08-09T00:10:48.673Z,2.13
2018-08-09T00:11:22.555Z,2.37
2018-08-09T00:11:56.523Z,2.50
2018-08-09T00:12:30.303Z,2.53
2018-08-09T00:13:04.008Z,2.50
2018-08-09T00:13:37.847Z,2.50
2018-08-09T00:14:12.104Z,2.63
2018-08-09T00:14:45.900Z,2.00
2018-08-09T00:15:19.642Z,2.23
2018-08-09T00:15:53.615Z,2.10
2018-08-09T00:16:27.578Z,2.60
2018-08-09T00:17:01.431Z,2.50
2018-08-09T00:17:35.379Z,2.27
2018-08-09T00:18:09.232Z,2.63
2018-08-09T00:18:43.219Z,2.10
2018-08-09T00:19:16.959Z,2.30
2018-08-09T00:19:50.987Z,2.40
2018-08-09T00:20:24.955Z,2.23
2018-08-09T00:20:58.837Z,2.03
2018-08-09T00:21:33.029Z,2.50
2018-08-09T00:22:06.816Z,2.40
2018-08-09T00:22:40.720Z,2.80
2018-08-09T00:23:14.525Z,2.77
2018-08-09T00:23:48.188Z,2.63
2018-08-09T00:24:21.953Z,2.23
2018-08-09T00:24:55.784Z,2.53
2018-08-09T00:25:30.184Z,2.47
2018-08-09T00:26:04.628Z,2.90
2018-08-09T00:26:38.491Z,2.47
2018-08-09T00:27:12.448Z,2.67
2018-08-09T00:27:46.313Z,2.83
2018-08-09T00:28:20.606Z,2.40
2018-08-09T00:28:54.427Z,2.13
2018-08-09T00:29:28.259Z,2.20
2018-08-09T00:30:02.132Z,2.23
2018-08-09T00:30:35.748Z,2.50
2018-08-09T00:31:10.013Z,2.47
2018-08-09T00:31:43.746Z,2.77
2018-08-09T00:32:17.620Z,2.60
2018-08-09T00:32:51.327Z,2.37
2018-08-09T00:33:25.271Z,2.60
2018-08-09T00:33:59.083Z,2.60
2018-08-09T00:34:32.802Z,2.30
2018-08-09T00:35:06.574Z,2.53
2018-08-09T00:35:40.447Z,2.70
2018-08-09T00:36:14.270Z,3.37
2018-08-09T00:36:48.096Z,2.40
2018-08-09T00:37:21.997Z,2.87
2018-08-09T00:37:56.169Z,2.27
2018-08-09T00:38:30.032Z,2.63
2018-08-09T00:39:06.640Z,2.50
2018-08-09T00:39:40.439Z,2.80
2018-08-09T00:40:14.168Z,2.40
2018-08-09T00:40:48.108Z,2.60
2018-08-09T00:41:22.019Z,2.57
2018-08-09T00:41:56.079Z,2.57
2018-08-09T00:42:30.422Z,2.47
2018-08-09T00:43:04.368Z,2.67
2018-08-09T00:43:38.311Z,2.47
2018-08-09T00:44:12.393Z,2.63
2018-08-09T00:44:46.317Z,2.30
2018-08-09T00:45:20.151Z,2.70
2018-08-09T00:45:54.095Z,2.40
2018-08-09T00:46:28.094Z,2.57
2018-08-09T00:47:03.000Z,2.50
2018-08-09T00:47:36.869Z,2.80
2018-08-09T00:48:10.851Z,2.80
2018-08-09T00:48:44.616Z,2.80
2018-08-09T00:49:18.343Z,2.93
2018-08-09T00:49:52.060Z,2.30
2018-08-09T00:50:25.960Z,2.57
2018-08-09T00:51:00.190Z,2.60
2018-08-09T00:51:34.116Z,3.03
2018-08-09T00:52:07.971Z,2.70
2018-08-09T00:52:41.708Z,2.57
2018-08-09T00:53:15.753Z,2.63
2018-08-09T00:53:49.667Z,2.63
2018-08-09T00:54:23.411Z,2.70
2018-08-09T00:54:57.560Z,2.80
2018-08-09T00:55:31.538Z,2.97
2018-08-09T00:56:05.384Z,2.80
2018-08-09T00:56:39.267Z,2.80
2018-08-09T00:57:13.002Z,2.83
2018-08-09T00:57:46.947Z,2.73
2018-08-09T00:58:20.772Z,2.67
2018-08-09T00:58:54.433Z,2.33
2018-08-09T00:59:28.568Z,2.97
2018-08-09T01:00:02.895Z,2.97
2018-08-09T01:00:36.560Z,2.37
2018-08-09T01:01:10.375Z,3.00
2018-08-09T01:01:44.211Z,2.70
2018-08-09T01:02:18.116Z,2.50
2018-08-09T01:02:52.024Z,2.70
2018-08-09T01:03:25.885Z,2.70
2018-08-09T01:03:59.857Z,3.03
2018-08-09T01:04:33.925Z,3.13
2018-08-09T01:05:07.658Z,2.57
2018-08-09T01:05:41.372Z,2.87
2018-08-09T01:06:15.349Z,2.93
2018-08-09T01:06:49.384Z,2.50
2018-08-09T01:07:22.932Z,3.07
2018-08-09T01:07:56.752Z,3.00
2018-08-09T01:08:30.702Z,2.43
2018-08-09T01:09:07.770Z,2.57
2018-08-09T01:09:41.581Z,2.80
2018-08-09T01:10:15.346Z,2.57
2018-08-09T01:10:49.197Z,2.53
2018-08-09T01:11:23.213Z,2.53
2018-08-09T01:11:57.068Z,2.60
2018-08-09T01:12:31.058Z,2.30
2018-08-09T01:13:05.078Z,2.67
2018-08-09T01:13:38.934Z,2.47
2018-08-09T01:14:12.871Z,2.70
2018-08-09T01:14:46.591Z,2.37
2018-08-09T01:15:20.248Z,2.87
2018-08-09T01:15:54.020Z,3.03
2018-08-09T01:16:28.128Z,2.73
2018-08-09T01:17:02.202Z,2.43
2018-08-09T01:17:36.049Z,2.40
2018-08-09T01:18:10.654Z,2.60
2018-08-09T01:18:44.374Z,2.47
2018-08-09T01:19:18.054Z,2.60
2018-08-09T01:19:51.806Z,2.73
2018-08-09T01:20:25.511Z,2.80
2018-08-09T01:20:59.597Z,2.67
2018-08-09T01:21:33.652Z,2.80
2018-08-09T01:22:07.533Z,2.50
2018-08-09T01:22:41.323Z,2.83
2018-08-09T01:23:15.079Z,2.30
2018-08-09T01:23:48.955Z,2.50
2018-08-09T01:24:22.764Z,2.57
2018-08-09T01:24:57.274Z,2.63
2018-08-09T01:25:31.326Z,2.87
2018-08-09T01:26:05.210Z,2.70
2018-08-09T01:26:38.976Z,2.43
2018-08-09T01:27:12.804Z,2.70
2018-08-09T01:27:46.583Z,2.80
2018-08-09T01:28:20.227Z,2.90
2018-08-09T01:28:53.970Z,2.67
2018-08-09T01:29:27.826Z,2.63
2018-08-09T01:30:01.966Z,2.60
2018-08-09T01:30:35.805Z,2.93
2018-08-09T01:31:09.644Z,2.53
2018-08-09T01:31:43.472Z,2.50
2018-08-09T01:32:17.449Z,2.87
2018-08-09T01:32:51.340Z,2.73
2018-08-09T01:33:25.446Z,2.50
2018-08-09T01:33:59.295Z,2.80
2018-08-09T01:34:33.359Z,2.50
2018-08-09T01:35:07.483Z,2.60
2018-08-09T01:35:41.361Z,2.40
2018-08-09T01:36:15.271Z,2.97
2018-08-09T01:36:49.147Z,2.60
2018-08-09T01:37:23.056Z,3.03
2018-08-09T01:37:57.066Z,2.50
2018-08-09T01:38:30.897Z,2.83
2018-08-09T01:39:08.294Z,2.70
2018-08-09T01:39:41.925Z,2.80
2018-08-09T01:40:15.603Z,2.70
2018-08-09T01:40:49.312Z,2.57
2018-08-09T01:41:23.314Z,2.80
2018-08-09T01:42:08.671Z,2.80
2018-08-09T01:42:53.866Z,2.90
2018-08-09T01:43:39.272Z,3.00
2018-08-09T01:44:13.053Z,2.57
2018-08-09T01:44:46.875Z,2.63
2018-08-09T01:45:21.077Z,2.70
2018-08-09T01:45:54.811Z,2.80
2018-08-09T01:46:28.984Z,3.30
2018-08-09T01:47:02.580Z,2.97
2018-08-09T01:47:36.937Z,2.73
2018-08-09T01:48:10.769Z,2.60
2018-08-09T01:48:44.623Z,2.67
2018-08-09T01:49:18.665Z,2.60
2018-08-09T01:49:52.310Z,3.10
2018-08-09T01:50:26.207Z,3.20
2018-08-09T01:51:00.725Z,2.90
2018-08-09T01:51:34.543Z,2.87
2018-08-09T01:52:08.440Z,2.87
2018-08-09T01:52:44.485Z,2.83
2018-08-09T01:53:18.126Z,2.70
2018-08-09T01:53:52.353Z,2.97
2018-08-09T01:54:26.165Z,2.83
2018-08-09T01:55:00.057Z,3.10
2018-08-09T01:55:34.681Z,2.97
2018-08-09T01:56:08.746Z,2.67
2018-08-09T01:56:43.004Z,3.03
2018-08-09T01:57:16.862Z,3.17
2018-08-09T01:57:50.497Z,2.90
2018-08-09T01:58:24.569Z,2.83
2018-08-09T01:58:58.184Z,3.43
2018-08-09T01:59:32.089Z,2.90
2018-08-09T02:00:06.398Z,3.20
2018-08-09T02:00:40.439Z,3.33
2018-08-09T02:01:14.676Z,3.30
2018-08-09T02:01:48.571Z,2.60
2018-08-09T02:02:22.479Z,2.70
2018-08-09T02:02:56.212Z,3.10
2018-08-09T02:03:30.073Z,2.80
2018-08-09T02:04:03.995Z,2.47
2018-08-09T02:04:38.003Z,2.73
2018-08-09T02:05:11.917Z,2.90
2018-08-09T02:05:45.586Z,2.60
2018-08-09T02:06:19.797Z,3.33
2018-08-09T02:06:53.754Z,3.00
2018-08-09T02:07:27.436Z,2.80
2018-08-09T02:08:01.171Z,3.20
2018-08-09T02:08:35.144Z,3.50
2018-08-09T02:09:10.947Z,3.40
2018-08-09T02:09:45.055Z,3.40
2018-08-09T02:10:18.968Z,2.70
2018-08-09T02:10:52.883Z,3.10
2018-08-09T02:11:26.809Z,3.17
2018-08-09T02:12:01.676Z,2.77
2018-08-09T02:12:35.372Z,3.63
2018-08-09T02:13:09.277Z,3.10
2018-08-09T02:13:43.846Z,3.17
2018-08-09T02:14:17.716Z,3.37
2018-08-09T02:14:51.781Z,3.10
2018-08-09T02:15:25.649Z,3.57
2018-08-09T02:15:59.607Z,3.37
2018-08-09T02:16:33.861Z,3.47
2018-08-09T02:17:07.927Z,3.57
2018-08-09T02:17:41.831Z,3.47
2018-08-09T02:18:15.716Z,3.10
2018-08-09T02:18:49.472Z,3.13
2018-08-09T02:19:23.534Z,3.20
2018-08-09T02:19:57.323Z,3.40
2018-08-09T02:20:31.345Z,3.87
2018-08-09T02:21:05.088Z,3.57
2018-08-09T02:21:39.357Z,3.83
2018-08-09T02:22:14.665Z,3.50
2018-08-09T02:22:48.466Z,3.43
2018-08-09T02:23:22.336Z,3.57
2018-08-09T02:23:56.226Z,3.97
2018-08-09T02:24:30.086Z,3.53
2018-08-09T02:25:04.151Z,3.70
2018-08-09T02:25:38.124Z,3.20
2018-08-09T02:26:12.135Z,3.40
2018-08-09T02:26:46.040Z,3.27
2018-08-09T02:27:19.996Z,3.63
2018-08-09T02:27:53.839Z,3.40
2018-08-09T02:28:28.052Z,3.73
2018-08-09T02:29:01.919Z,3.37
2018-08-09T02:29:35.827Z,3.37
2018-08-09T02:30:09.841Z,3.50
2018-08-09T02:30:43.596Z,3.57
2018-08-09T02:31:17.725Z,3.37
2018-08-09T02:31:51.488Z,3.60
2018-08-09T02:32:25.140Z,3.80
2018-08-09T02:32:58.980Z,3.80
2018-08-09T02:33:32.685Z,3.10
2018-08-09T02:34:06.748Z,3.40
2018-08-09T02:34:40.695Z,3.30
2018-08-09T02:35:15.229Z,3.40
2018-08-09T02:35:49.233Z,3.77
2018-08-09T02:36:23.019Z,3.67
2018-08-09T02:36:56.690Z,3.80
2018-08-09T02:37:30.448Z,3.37
2018-08-09T02:38:04.544Z,4.00
2018-08-09T02:38:38.299Z,3.90
2018-08-09T02:39:12.216Z,3.63
2018-08-09T02:39:46.186Z,3.47
2018-08-09T02:40:20.126Z,3.50
2018-08-09T02:40:53.910Z,3.57
2018-08-09T02:41:27.550Z,3.47
2018-08-09T02:42:01.609Z,3.73
2018-08-09T02:42:35.417Z,3.50
2018-08-09T02:43:09.205Z,3.83
2018-08-09T02:43:43.309Z,3.40
2018-08-09T02:44:17.118Z,3.47
2018-08-09T02:44:51.028Z,3.50
2018-08-09T02:45:24.692Z,4.10
2018-08-09T02:45:58.341Z,3.93
2018-08-09T02:46:32.028Z,3.93
2018-08-09T02:47:05.985Z,4.03
2018-08-09T02:47:39.811Z,4.17
2018-08-09T02:48:13.585Z,3.47
2018-08-09T02:48:47.561Z,3.53
2018-08-09T02:49:21.300Z,3.83
2018-08-09T02:49:55.191Z,3.47
2018-08-09T02:50:29.104Z,4.03
2018-08-09T02:51:03.000Z,3.20
2018-08-09T02:51:36.827Z,3.87
2018-08-09T02:52:10.596Z,3.77
2018-08-09T02:52:44.622Z,3.40
2018-08-09T02:53:18.431Z,3.73
2018-08-09T02:53:52.476Z,3.60
2018-08-09T02:54:26.320Z,3.60
2018-08-09T02:55:00.192Z,4.07
2018-08-09T02:55:33.908Z,4.30
2018-08-09T02:56:07.704Z,3.17
2018-08-09T02:56:41.659Z,3.23
2018-08-09T02:57:15.709Z,3.60
2018-08-09T02:57:49.628Z,3.90
2018-08-09T02:58:23.648Z,4.00
2018-08-09T02:58:57.438Z,3.83
2018-08-09T02:59:31.225Z,3.90
2018-08-09T03:00:05.426Z,4.03
2018-08-09T03:00:39.355Z,4.47
2018-08-09T03:01:13.012Z,3.60
2018-08-09T03:01:46.953Z,3.90
2018-08-09T03:02:20.816Z,4.30
2018-08-09T03:02:54.756Z,4.13
2018-08-09T03:03:28.581Z,4.03
2018-08-09T03:04:02.610Z,3.27
2018-08-09T03:04:36.401Z,4.30
2018-08-09T03:05:10.154Z,3.60
2018-08-09T03:05:44.132Z,4.30
2018-08-09T03:06:18.051Z,4.00
2018-08-09T03:06:52.052Z,3.87
2018-08-09T03:07:25.877Z,4.50
2018-08-09T03:07:59.717Z,4.33
2018-08-09T03:08:33.636Z,3.97
2018-08-09T03:09:10.166Z,4.40
2018-08-09T03:09:44.195Z,4.10
2018-08-09T03:10:18.286Z,4.40
2018-08-09T03:10:52.274Z,3.93
2018-08-09T03:11:26.008Z,3.87
2018-08-09T03:11:59.894Z,4.17
2018-08-09T03:12:33.694Z,4.33
2018-08-09T03:13:07.755Z,4.53
2018-08-09T03:13:41.841Z,4.17
2018-08-09T03:14:15.663Z,4.20
2018-08-09T03:14:49.605Z,4.13
2018-08-09T03:15:23.707Z,4.30
2018-08-09T03:15:57.756Z,4.60
2018-08-09T03:16:31.651Z,3.77
2018-08-09T03:17:05.815Z,4.00
2018-08-09T03:17:39.619Z,3.87
2018-08-09T03:18:13.442Z,4.37
2018-08-09T03:18:47.296Z,3.90
2018-08-09T03:19:22.131Z,4.00
2018-08-09T03:19:56.088Z,3.90
2018-08-09T03:20:29.991Z,4.00
2018-08-09T03:21:03.811Z,3.93
2018-08-09T03:21:37.540Z,4.37
2018-08-09T03:22:11.568Z,4.30
2018-08-09T03:22:45.253Z,4.50
2018-08-09T03:23:19.082Z,4.10
2018-08-09T03:23:53.084Z,4.20
2018-08-09T03:24:26.985Z,4.00
2018-08-09T03:25:00.955Z,3.97
2018-08-09T03:25:34.762Z,3.77
2018-08-09T03:26:08.419Z,4.20
2018-08-09T03:26:42.226Z,4.70
2018-08-09T03:27:16.124Z,3.60
2018-08-09T03:27:50.298Z,4.00
2018-08-09T03:28:24.351Z,4.13
2018-08-09T03:28:57.944Z,4.43
2018-08-09T03:29:31.576Z,3.90
2018-08-09T03:30:05.920Z,4.07
2018-08-09T03:30:39.547Z,4.20
2018-08-09T03:31:13.393Z,4.07
2018-08-09T03:31:47.092Z,3.60
2018-08-09T03:32:21.275Z,3.97
2018-08-09T03:32:55.060Z,4.33
2018-08-09T03:33:28.799Z,3.90
2018-08-09T03:34:02.673Z,4.00
2018-08-09T03:34:36.435Z,4.60
2018-08-09T03:35:10.210Z,3.90
2018-08-09T03:35:44.028Z,3.67
2018-08-09T03:36:17.735Z,3.83
2018-08-09T03:36:51.679Z,3.57
2018-08-09T03:37:25.700Z,3.50
2018-08-09T03:37:59.417Z,3.97
2018-08-09T03:38:33.417Z,4.20
2018-08-09T03:39:08.559Z,3.80
2018-08-09T03:39:42.469Z,3.90
2018-08-09T03:40:16.306Z,4.13
2018-08-09T03:40:49.923Z,4.07
2018-08-09T03:41:24.044Z,3.77
2018-08-09T03:41:58.095Z,4.00
2018-08-09T03:42:32.031Z,3.80
2018-08-09T03:43:05.962Z,3.80
2018-08-09T03:43:39.768Z,4.07
2018-08-09T03:44:13.677Z,4.43
2018-08-09T03:44:47.531Z,4.03
2018-08-09T03:45:22.184Z,4.67
2018-08-09T03:45:56.033Z,3.83
2018-08-09T03:46:29.952Z,3.60
2018-08-09T03:47:03.833Z,3.83
2018-08-09T03:47:37.696Z,3.77
2018-08-09T03:48:11.455Z,4.07
2018-08-09T03:48:45.364Z,3.70
2018-08-09T03:49:19.145Z,3.90
2018-08-09T03:49:53.060Z,3.90
2018-08-09T03:50:26.915Z,3.50
2018-08-09T03:51:00.929Z,4.60
2018-08-09T03:51:35.028Z,4.20
2018-08-09T03:52:09.017Z,3.50
2018-08-09T03:52:42.709Z,3.90
2018-08-09T03:53:16.496Z,4.00
2018-08-09T03:53:50.327Z,3.97
2018-08-09T03:54:24.428Z,3.83
2018-08-09T03:54:58.808Z,4.00
2018-08-09T03:55:32.669Z,3.63
2018-08-09T03:56:06.687Z,3.63
2018-08-09T03:56:40.503Z,4.00
2018-08-09T03:57:14.192Z,4.13
2018-08-09T03:57:48.031Z,3.87
2018-08-09T03:58:21.876Z,3.80
2018-08-09T03:58:56.174Z,3.47
2018-08-09T03:59:32.719Z,4.33
2018-08-09T04:00:07.440Z,4.37
2018-08-09T04:00:41.100Z,3.70
2018-08-09T04:01:15.252Z,4.43
2018-08-09T04:01:49.235Z,4.13
2018-08-09T04:02:23.176Z,4.33
2018-08-09T04:02:57.263Z,4.60
2018-08-09T04:03:31.820Z,4.03
2018-08-09T04:04:06.150Z,4.23
2018-08-09T04:04:39.914Z,4.03
2018-08-09T04:05:13.815Z,4.20
2018-08-09T04:05:47.453Z,4.00
2018-08-09T04:06:21.155Z,4.53
2018-08-09T04:06:55.541Z,4.17
2018-08-09T04:07:29.441Z,3.73
2018-08-09T04:08:03.530Z,4.40
2018-08-09T04:08:37.588Z,4.23
2018-08-09T04:09:11.677Z,4.03
2018-08-09T04:09:45.391Z,4.23
2018-08-09T04:10:19.104Z,4.07
2018-08-09T04:10:52.952Z,4.00
2018-08-09T04:11:26.986Z,4.63
2018-08-09T04:12:00.843Z,4.00
2018-08-09T04:12:34.639Z,4.17
2018-08-09T04:13:08.386Z,4.73
2018-08-09T04:13:42.314Z,4.60
2018-08-09T04:14:16.191Z,4.77
2018-08-09T04:14:50.074Z,4.73
2018-08-09T04:15:24.017Z,4.90
2018-08-09T04:15:58.150Z,4.33
2018-08-09T04:16:32.216Z,4.77
2018-08-09T04:17:21.548Z,4.30
2018-08-09T04:17:55.463Z,4.20
2018-08-09T04:18:29.672Z,4.30
2018-08-09T04:19:03.854Z,4.57
2018-08-09T04:19:37.705Z,3.93
2018-08-09T04:20:11.444Z,4.80
2018-08-09T04:20:45.204Z,4.93
2018-08-09T04:21:19.145Z,4.80
2018-08-09T04:21:52.947Z,5.50
2018-08-09T04:22:26.624Z,4.83
2018-08-09T04:23:00.416Z,4.90
2018-08-09T04:23:35.564Z,4.90
2018-08-09T04:24:09.355Z,4.83
2018-08-09T04:24:43.095Z,4.70
2018-08-09T04:25:16.771Z,4.63
2018-08-09T04:25:50.809Z,5.00
2018-08-09T04:26:24.617Z,4.27
2018-08-09T04:26:59.573Z,4.37
2018-08-09T04:27:33.636Z,4.50
2018-08-09T04:28:07.633Z,4.83
2018-08-09T04:28:41.538Z,4.93
2018-08-09T04:29:15.418Z,4.40
2018-08-09T04:29:49.188Z,5.37
2018-08-09T04:30:22.994Z,4.77
2018-08-09T04:30:56.698Z,4.60
2018-08-09T04:31:30.514Z,4.63
2018-08-09T04:32:04.816Z,4.77
2018-08-09T04:32:38.959Z,4.73
2018-08-09T04:33:12.882Z,4.53
2018-08-09T04:33:46.712Z,4.60
2018-08-09T04:34:20.455Z,5.20
2018-08-09T04:34:54.224Z,5.30
2018-08-09T04:35:28.091Z,4.73
2018-08-09T04:36:02.260Z,4.13
2018-08-09T04:36:36.164Z,4.97
2018-08-09T04:37:09.917Z,4.50
2018-08-09T04:37:43.591Z,4.00
2018-08-09T04:38:17.291Z,4.63
2018-08-09T04:38:51.023Z,3.90
2018-08-09T04:39:24.672Z,4.83
2018-08-09T04:39:58.570Z,4.17
2018-08-09T04:40:32.678Z,4.30
2018-08-09T04:41:06.795Z,4.53
2018-08-09T04:41:40.566Z,3.87
2018-08-09T04:42:14.463Z,4.10
2018-08-09T04:42:48.273Z,3.77
2018-08-09T04:43:21.949Z,3.60
2018-08-09T04:43:55.781Z,4.00
2018-08-09T04:44:29.550Z,3.90
2018-08-09T04:45:03.876Z,3.60
2018-08-09T04:45:38.259Z,3.93
2018-08-09T04:46:12.072Z,3.80
2018-08-09T04:46:45.932Z,3.87
2018-08-09T04:47:19.954Z,4.20
2018-08-09T04:47:53.623Z,4.13
2018-08-09T04:48:27.356Z,4.13
2018-08-09T04:49:01.185Z,4.37
2018-08-09T04:49:35.577Z,3.67
2018-08-09T04:50:09.447Z,3.60
2018-08-09T04:50:43.344Z,3.30
2018-08-09T04:51:17.307Z,4.00
2018-08-09T04:51:51.405Z,3.73
2018-08-09T04:52:25.246Z,3.37
2018-08-09T04:52:58.888Z,3.97
2018-08-09T04:53:32.670Z,3.70
2018-08-09T04:54:06.758Z,3.67
2018-08-09T04:54:40.651Z,3.50
2018-08-09T04:55:14.443Z,3.80
2018-08-09T04:55:48.245Z,3.77
2018-08-09T04:56:21.983Z,3.83
2018-08-09T04:56:55.993Z,3.60
2018-08-09T04:57:30.066Z,3.53
2018-08-09T04:58:04.004Z,3.60
2018-08-09T04:58:37.827Z,3.60
2018-08-09T04:59:11.788Z,3.50
2018-08-09T04:59:45.705Z,3.70
2018-08-09T05:00:19.732Z,4.00
2018-08-09T05:00:53.932Z,3.43
2018-08-09T05:01:27.575Z,3.53
2018-08-09T05:02:01.221Z,3.70
2018-08-09T05:02:35.322Z,3.33
2018-08-09T05:03:09.275Z,4.07
2018-08-09T05:03:43.148Z,4.00
2018-08-09T05:04:17.127Z,3.30
2018-08-09T05:04:51.290Z,3.60
2018-08-09T05:05:25.081Z,3.73
2018-08-09T05:05:59.276Z,3.40
2018-08-09T05:06:33.047Z,3.37
2018-08-09T05:07:09.350Z,3.70
2018-08-09T05:07:43.123Z,3.90
2018-08-09T05:08:17.109Z,4.10
2018-08-09T05:08:50.900Z,3.90
2018-08-09T05:09:24.700Z,3.90
2018-08-09T05:10:03.969Z,4.00
2018-08-09T05:10:37.944Z,4.47
2018-08-09T05:11:11.893Z,4.20
2018-08-09T05:11:45.739Z,4.10
2018-08-09T05:12:19.498Z,3.97
2018-08-09T05:12:53.186Z,3.73
2018-08-09T05:13:27.082Z,3.80
2018-08-09T05:14:00.972Z,3.50
2018-08-09T05:14:34.715Z,3.83
2018-08-09T05:15:10.327Z,4.57
2018-08-09T05:15:44.342Z,4.40
2018-08-09T05:16:18.200Z,4.30
2018-08-09T05:16:52.031Z,4.80
2018-08-09T05:17:25.759Z,4.83
2018-08-09T05:17:59.649Z,4.40
2018-08-09T05:18:33.479Z,4.73
2018-08-09T05:19:07.251Z,4.70
2018-08-09T05:19:41.456Z,4.27
2018-08-09T05:20:15.257Z,4.77
2018-08-09T05:20:48.971Z,4.30
2018-08-09T05:21:22.853Z,4.27
2018-08-09T05:21:56.671Z,4.73
2018-08-09T05:22:30.559Z,5.20
2018-08-09T05:23:04.419Z,4.50
2018-08-09T05:23:38.343Z,4.67
2018-08-09T05:24:13.050Z,4.97
2018-08-09T05:24:46.906Z,4.97
2018-08-09T05:25:20.764Z,4.40
2018-08-09T05:25:54.591Z,4.93
2018-08-09T05:26:28.642Z,5.10
2018-08-09T05:27:02.476Z,4.97
2018-08-09T05:27:36.344Z,5.17
2018-08-09T05:28:10.340Z,4.67
2018-08-09T05:28:44.415Z,4.97
2018-08-09T05:29:18.391Z,5.13
2018-08-09T05:29:52.508Z,4.60
2018-08-09T05:30:26.256Z,4.23
2018-08-09T05:31:00.068Z,4.73
2018-08-09T05:31:33.991Z,4.80
2018-08-09T05:32:07.761Z,4.43
2018-08-09T05:32:41.783Z,4.70
2018-08-09T05:33:15.871Z,5.10
2018-08-09T05:33:49.855Z,4.77
2018-08-09T05:34:23.615Z,4.43
2018-08-09T05:34:57.629Z,4.13
2018-08-09T05:35:31.464Z,4.13
2018-08-09T05:36:07.261Z,4.20
2018-08-09T05:36:44.129Z,4.53
2018-08-09T05:37:17.940Z,4.70
2018-08-09T05:37:51.738Z,4.27
2018-08-09T05:38:25.593Z,4.70
2018-08-09T05:38:59.312Z,4.60
2018-08-09T05:39:33.976Z,4.10
2018-08-09T05:40:07.903Z,4.20
2018-08-09T05:40:42.078Z,4.93
2018-08-09T05:41:16.165Z,4.50
2018-08-09T05:41:50.337Z,3.87
2018-08-09T05:42:24.301Z,4.23
2018-08-09T05:42:58.016Z,4.33
2018-08-09T05:43:31.860Z,4.10
2018-08-09T05:44:05.775Z,4.20
2018-08-09T05:44:39.478Z,4.43
2018-08-09T05:45:13.357Z,4.13
2018-08-09T05:45:47.442Z,3.87
2018-08-09T05:46:21.323Z,3.73
2018-08-09T05:46:55.062Z,3.90
2018-08-09T05:47:28.949Z,4.27
2018-08-09T05:48:02.807Z,4.13
2018-08-09T05:48:36.582Z,3.40
2018-08-09T05:49:10.334Z,4.30
2018-08-09T05:49:44.425Z,3.80
2018-08-09T05:50:18.553Z,3.60
2018-08-09T05:50:52.636Z,3.97
2018-08-09T05:51:26.423Z,4.10
2018-08-09T05:52:00.272Z,3.77
2018-08-09T05:52:34.305Z,4.10
2018-08-09T05:53:08.148Z,4.27
2018-08-09T05:53:42.019Z,3.63
2018-08-09T05:54:16.240Z,3.97
2018-08-09T05:54:50.473Z,3.60
2018-08-09T05:55:24.683Z,3.93
2018-08-09T05:55:59.592Z,4.30
2018-08-09T05:56:33.429Z,4.03
2018-08-09T05:57:07.185Z,4.23
2018-08-09T05:57:40.924Z,4.10
2018-08-09T05:58:14.838Z,4.13
2018-08-09T05:58:48.827Z,3.67
2018-08-09T05:59:22.963Z,4.27
2018-08-09T05:59:56.999Z,4.10
2018-08-09T06:00:30.687Z,3.97
2018-08-09T06:01:04.600Z,4.13
2018-08-09T06:01:38.708Z,4.10
2018-08-09T06:02:12.348Z,3.80
2018-08-09T06:02:46.274Z,4.57
2018-08-09T06:03:20.187Z,4.27
2018-08-09T06:03:54.273Z,3.60
2018-08-09T06:04:28.143Z,4.27
2018-08-09T06:05:02.129Z,4.30
2018-08-09T06:05:35.930Z,4.17
2018-08-09T06:06:09.943Z,4.13
2018-08-09T06:06:43.832Z,4.77
2018-08-09T06:07:18.390Z,4.57
2018-08-09T06:07:52.360Z,5.27
2018-08-09T06:08:26.536Z,4.17
2018-08-09T06:09:00.468Z,4.47
2018-08-09T06:09:34.418Z,3.90
2018-08-09T06:10:08.259Z,4.33
2018-08-09T06:10:42.304Z,4.30
2018-08-09T06:11:16.178Z,4.47
2018-08-09T06:11:50.102Z,4.80
2018-08-09T06:12:24.613Z,4.80
2018-08-09T06:12:58.625Z,5.13
2018-08-09T06:13:32.379Z,4.47
2018-08-09T06:14:06.597Z,4.00
2018-08-09T06:14:40.153Z,4.47
2018-08-09T06:15:13.989Z,4.77
2018-08-09T06:15:51.600Z,4.43
2018-08-09T06:16:26.118Z,4.28
2018-08-09T06:17:00.538Z,5.07
2018-08-09T06:17:34.789Z,4.83
2018-08-09T06:18:08.778Z,5.07
2018-08-09T06:18:42.649Z,4.75
2018-08-09T06:19:16.974Z,5.20
2018-08-09T06:19:50.879Z,5.13
2018-08-09T06:20:24.946Z,4.93
2018-08-09T06:20:58.962Z,5.42
2018-08-09T06:21:32.628Z,5.87
2018-08-09T06:22:13.284Z,5.30
2018-08-09T06:22:47.338Z,5.47
2018-08-09T06:23:21.751Z,5.58
2018-08-09T06:23:55.784Z,5.53
2018-08-09T06:24:29.645Z,5.40
2018-08-09T06:25:04.492Z,4.83
2018-08-09T06:25:38.183Z,4.57
2018-08-09T06:26:12.036Z,4.80
2018-08-09T06:26:46.029Z,4.90
2018-08-09T06:27:20.340Z,4.87
2018-08-09T06:27:54.931Z,4.78
2018-08-09T06:28:28.864Z,4.60
2018-08-09T06:29:02.704Z,4.50
2018-08-09T06:29:36.658Z,4.57
2018-08-09T06:30:11.083Z,4.97
2018-08-09T06:30:44.987Z,4.40
2018-08-09T06:31:19.094Z,4.20
2018-08-09T06:31:53.136Z,4.20
2018-08-09T06:32:27.108Z,4.60
2018-08-09T06:33:01.287Z,4.40
2018-08-09T06:33:35.382Z,4.03
2018-08-09T06:34:09.154Z,5.13
2018-08-09T06:34:42.891Z,4.93
2018-08-09T06:35:16.862Z,4.47
2018-08-09T06:35:50.947Z,4.70
2018-08-09T06:36:25.612Z,3.90
2018-08-09T06:36:59.516Z,4.20
2018-08-09T06:37:33.267Z,8.03
2018-08-09T06:38:07.044Z,7.97
2018-08-09T06:38:41.148Z,4.27
2018-08-09T06:39:15.067Z,5.30
2018-08-09T06:39:49.066Z,7.12
2018-08-09T06:40:23.198Z,5.70
2018-08-09T06:40:57.241Z,6.97
2018-08-09T06:41:31.076Z,7.17
2018-08-09T06:42:04.951Z,4.87
2018-08-09T06:42:39.388Z,5.53
2018-08-09T06:43:13.146Z,4.70
2018-08-09T06:43:47.259Z,5.13
2018-08-09T06:44:21.732Z,4.95
2018-08-09T06:44:55.599Z,4.60
2018-08-09T06:45:29.674Z,5.10
2018-08-09T06:46:03.661Z,4.23
2018-08-09T06:46:37.679Z,4.47
2018-08-09T06:47:11.529Z,4.90
2018-08-09T06:47:45.390Z,4.10
2018-08-09T06:48:19.078Z,4.17
2018-08-09T06:48:53.144Z,4.33
2018-08-09T06:49:27.237Z,3.80
2018-08-09T06:50:01.028Z,4.77
2018-08-09T06:50:35.155Z,4.97
2018-08-09T06:51:09.026Z,5.83
2018-08-09T06:51:42.811Z,4.70
2018-08-09T06:52:16.708Z,3.73
2018-08-09T06:52:50.477Z,4.00
2018-08-09T06:53:24.419Z,3.90
2018-08-09T06:53:58.251Z,3.70
2018-08-09T06:54:32.304Z,3.87
2018-08-09T06:55:46.773Z,3.80
2018-08-09T06:56:20.656Z,3.50
2018-08-09T06:56:54.452Z,3.80
2018-08-09T06:57:28.518Z,3.62
2018-08-09T06:58:02.472Z,3.95
2018-08-09T06:58:36.168Z,3.60
2018-08-09T06:59:10.316Z,3.70
2018-08-09T06:59:44.151Z,3.73
2018-08-09T07:00:18.132Z,3.30
2018-08-09T07:00:52.040Z,3.30
2018-08-09T07:01:25.955Z,3.75
2018-08-09T07:01:59.891Z,3.52
2018-08-09T07:02:33.802Z,3.72
2018-08-09T07:03:07.716Z,3.62
2018-08-09T07:03:41.563Z,3.42
2018-08-09T07:04:15.431Z,3.60
2018-08-09T07:04:49.322Z,3.37
2018-08-09T07:05:23.716Z,3.35
2018-08-09T07:05:57.507Z,3.55
2018-08-09T07:06:31.551Z,3.55
2018-08-09T07:07:05.865Z,3.80
2018-08-09T07:07:40.233Z,3.73
2018-08-09T07:08:14.007Z,3.45
2018-08-09T07:08:47.895Z,2.90
2018-08-09T07:09:21.519Z,3.12
2018-08-09T07:09:55.388Z,3.42
2018-08-09T07:10:29.733Z,3.80
2018-08-09T07:11:03.911Z,3.85
2018-08-09T07:11:38.133Z,3.50
2018-08-09T07:12:11.753Z,3.58
2018-08-09T07:12:45.536Z,3.65
2018-08-09T07:13:19.582Z,3.83
2018-08-09T07:13:53.355Z,3.95
2018-08-09T07:14:27.296Z,3.65
2018-08-09T07:15:01.220Z,3.75
2018-08-09T07:15:35.131Z,3.90
2018-08-09T07:16:08.960Z,3.40
2018-08-09T07:16:42.694Z,4.00
2018-08-09T07:17:16.644Z,4.40
2018-08-09T07:17:50.946Z,3.92
2018-08-09T07:18:25.417Z,3.67
2018-08-09T07:18:59.595Z,3.75
2018-08-09T07:19:33.464Z,4.55
2018-08-09T07:20:08.212Z,3.65
2018-08-09T07:20:41.939Z,3.92
2018-08-09T07:21:15.903Z,3.37
2018-08-09T07:21:49.783Z,4.60
2018-08-09T07:22:23.541Z,4.70
2018-08-09T07:22:57.823Z,4.17
2018-08-09T07:23:31.747Z,4.40
2018-08-09T07:24:05.763Z,4.03
2018-08-09T07:24:39.581Z,4.67
2018-08-09T07:25:53.736Z,5.72
2018-08-09T07:26:27.719Z,3.98
2018-08-09T07:27:01.496Z,4.83
2018-08-09T07:27:35.939Z,4.55
2018-08-09T07:28:09.837Z,4.60
2018-08-09T07:28:43.737Z,4.97
2018-08-09T07:29:17.393Z,4.62
2018-08-09T07:29:51.285Z,4.75
2018-08-09T07:30:25.807Z,4.65
2018-08-09T07:31:00.248Z,4.22
2018-08-09T07:31:34.024Z,3.77
2018-08-09T07:32:07.896Z,4.25
2018-08-09T07:32:41.580Z,4.33
2018-08-09T07:33:15.212Z,4.20
2018-08-09T07:33:48.898Z,4.17
2018-08-09T07:34:22.684Z,4.28